createdAt,value
2022-12-15T00:02:35.330Z,25.20
2022-12-15T00:05:21.123Z,24.70
2022-12-15T00:08:06.476Z,23.97
2022-12-15T00:10:51.980Z,25.33
2022-12-15T00:13:37.355Z,25.00
2022-12-15T00:16:22.930Z,24.80
2022-12-15T00:19:08.640Z,25.87
2022-12-15T00:21:54.299Z,25.57
2022-12-15T00:24:39.740Z,25.93
2022-12-15T00:27:25.175Z,26.23
2022-12-15T00:30:10.626Z,26.57
2022-12-15T00:32:56.059Z,26.40
2022-12-15T00:35:41.520Z,24.97
2022-12-15T00:38:31.957Z,23.50
2022-12-15T00:40:59.733Z,24.37
2022-12-15T00:43:28.421Z,23.67
2022-12-15T00:46:14.106Z,25.50
2022-12-15T00:48:41.290Z,25.03
2022-12-15T00:51:08.343Z,25.17
2022-12-15T00:53:53.623Z,24.37
2022-12-15T00:56:39.186Z,24.67
2022-12-15T00:59:24.649Z,24.40
2022-12-15T01:02:10.129Z,23.70
2022-12-15T01:04:55.433Z,24.27
2022-12-15T01:07:41.199Z,24.70
2022-12-15T01:10:27.134Z,24.53
2022-12-15T01:13:12.601Z,22.07
2022-12-15T01:15:58.034Z,23.37
2022-12-15T01:18:43.984Z,22.60
2022-12-15T01:21:16.403Z,24.00
2022-12-15T01:23:43.175Z,22.63
2022-12-15T01:26:09.907Z,21.10
2022-12-15T01:28:36.730Z,22.40
2022-12-15T01:31:11.434Z,22.10
2022-12-15T01:33:39.667Z,22.33
2022-12-15T01:36:06.642Z,24.33
2022-12-15T01:38:33.410Z,23.23
2022-12-15T01:41:05.943Z,23.00
2022-12-15T01:43:35.744Z,24.03
2022-12-15T01:46:11.702Z,22.83
2022-12-15T01:48:49.456Z,22.53
2022-12-15T01:51:18.329Z,22.50
2022-12-15T01:54:14.451Z,22.87
2022-12-15T01:56:45.306Z,22.60
2022-12-15T01:59:19.486Z,20.37
2022-12-15T02:01:49.637Z,22.07
2022-12-15T02:04:19.576Z,20.40
2022-12-15T02:06:46.298Z,20.10
2022-12-15T02:09:13.266Z,20.93
2022-12-15T02:12:08.012Z,21.93
2022-12-15T02:14:44.565Z,21.67
2022-12-15T02:17:39.092Z,21.77
2022-12-15T02:20:12.235Z,20.30
2022-12-15T02:23:14.041Z,21.65
2022-12-15T02:26:25.340Z,20.60
2022-12-15T02:29:13.789Z,22.23
2022-12-15T02:31:50.665Z,21.30
2022-12-15T02:34:47.048Z,22.77
2022-12-15T02:37:35.842Z,22.60
2022-12-15T02:40:05.290Z,25.97
2022-12-15T02:42:35.655Z,29.57
2022-12-15T02:45:19.876Z,30.60
2022-12-15T02:48:16.691Z,29.27
2022-12-15T02:50:46.660Z,30.50
2022-12-15T02:53:55.754Z,29.57
2022-12-15T02:56:32.483Z,31.03
2022-12-15T02:59:13.304Z,30.23
2022-12-15T03:01:57.296Z,30.67
2022-12-15T03:04:26.914Z,32.07
2022-12-15T03:07:01.093Z,33.83
2022-12-15T03:09:28.541Z,33.20
2022-12-15T03:11:55.204Z,34.00
2022-12-15T03:14:21.989Z,33.40
2022-12-15T03:16:48.672Z,31.33
2022-12-15T03:19:15.476Z,31.60
2022-12-15T03:21:42.260Z,32.73
2022-12-15T03:24:09.113Z,33.07
2022-12-15T03:26:36.031Z,33.10
2022-12-15T03:29:03.075Z,33.73
2022-12-15T03:31:30.096Z,33.67
2022-12-15T03:33:57.310Z,34.07
2022-12-15T03:36:23.972Z,31.53
2022-12-15T03:38:50.667Z,33.03
2022-12-15T03:41:19.202Z,31.90
2022-12-15T03:43:46.515Z,31.97
2022-12-15T03:46:17.027Z,30.83
2022-12-15T03:48:43.832Z,32.73
2022-12-15T03:51:10.695Z,31.20
2022-12-15T03:53:37.532Z,30.73
2022-12-15T03:56:04.510Z,29.53
2022-12-15T03:58:31.317Z,29.83
2022-12-15T04:00:58.048Z,28.87
2022-12-15T04:03:24.845Z,29.23
2022-12-15T04:05:51.643Z,30.83
2022-12-15T04:08:18.374Z,29.57
2022-12-15T04:10:45.128Z,29.17
2022-12-15T04:13:12.312Z,28.73
2022-12-15T04:15:40.235Z,28.70
2022-12-15T04:18:10.005Z,27.83
2022-12-15T04:20:38.328Z,27.43
2022-12-15T04:23:07.653Z,28.53
2022-12-15T04:25:53.938Z,28.97
2022-12-15T04:28:39.833Z,26.50
2022-12-15T04:31:31.539Z,26.37
2022-12-15T04:34:31.731Z,26.87
2022-12-15T04:37:17.275Z,28.43
2022-12-15T04:40:12.964Z,27.40
2022-12-15T04:43:04.787Z,28.27
2022-12-15T04:45:50.222Z,26.00
2022-12-15T04:48:35.713Z,26.33
2022-12-15T04:51:23.648Z,27.10
2022-12-15T04:54:09.128Z,26.63
2022-12-15T04:56:54.348Z,28.50
2022-12-15T04:59:39.829Z,26.77
2022-12-15T05:02:25.340Z,26.97
2022-12-15T05:05:10.708Z,27.00
2022-12-15T05:07:56.118Z,27.17
2022-12-15T05:10:41.475Z,29.47
2022-12-15T05:13:27.470Z,26.13
2022-12-15T05:16:12.856Z,26.10
2022-12-15T05:18:58.402Z,24.73
2022-12-15T05:21:44.197Z,28.20
2022-12-15T05:24:29.525Z,27.43
2022-12-15T05:27:14.987Z,25.70
2022-12-15T05:30:00.386Z,27.83
2022-12-15T05:32:27.073Z,25.73
2022-12-15T05:34:53.712Z,25.23
2022-12-15T05:37:20.462Z,25.70
2022-12-15T05:39:47.148Z,25.47
2022-12-15T05:42:13.805Z,26.27
2022-12-15T05:44:40.751Z,27.10
2022-12-15T05:47:09.158Z,26.63
2022-12-15T05:49:35.876Z,26.67
2022-12-15T05:52:02.639Z,27.30
2022-12-15T05:54:29.456Z,26.77
2022-12-15T05:56:56.354Z,26.90
2022-12-15T05:59:23.020Z,26.97
2022-12-15T06:01:49.803Z,25.87
2022-12-15T06:04:16.644Z,25.53
2022-12-15T06:06:43.528Z,27.13
2022-12-15T06:09:10.345Z,27.07
2022-12-15T06:11:37.414Z,26.57
2022-12-15T06:14:04.183Z,25.30
2022-12-15T06:16:31.417Z,26.37
2022-12-15T06:19:00.674Z,26.90
2022-12-15T06:21:35.107Z,27.37
2022-12-15T06:24:03.211Z,26.90
2022-12-15T06:26:33.686Z,27.50
2022-12-15T06:29:04.524Z,27.80
2022-12-15T06:31:32.785Z,27.57
2022-12-15T06:34:02.357Z,27.20
2022-12-15T06:36:30.959Z,27.27
2022-12-15T06:39:02.807Z,29.40
2022-12-15T06:41:30.520Z,28.30
2022-12-15T06:43:58.077Z,27.67
2022-12-15T06:46:26.160Z,28.07
2022-12-15T06:48:53.284Z,30.10
2022-12-15T06:51:20.089Z,29.87
2022-12-15T06:53:53.615Z,31.17
2022-12-15T06:56:32.555Z,31.08
2022-12-15T06:59:00.289Z,30.80
2022-12-15T07:01:27.798Z,30.43
2022-12-15T07:03:55.736Z,28.43
2022-12-15T07:06:23.064Z,29.67
2022-12-15T07:08:52.841Z,31.03
2022-12-15T07:11:21.127Z,31.87
2022-12-15T07:13:54.903Z,32.57
2022-12-15T07:16:22.727Z,33.40
2022-12-15T07:18:50.047Z,33.17
2022-12-15T07:21:17.209Z,32.13
2022-12-15T07:24:00.608Z,32.87
2022-12-15T07:26:28.561Z,31.87
2022-12-15T07:28:56.254Z,31.30
2022-12-15T07:31:23.416Z,32.13
2022-12-15T07:33:52.122Z,32.10
2022-12-15T07:36:19.187Z,33.53
2022-12-15T07:38:50.428Z,33.77
2022-12-15T07:41:19.115Z,34.33
2022-12-15T07:43:46.940Z,31.77
2022-12-15T07:46:13.963Z,33.37
2022-12-15T07:48:40.676Z,31.87
2022-12-15T07:51:15.203Z,30.40
2022-12-15T07:53:44.099Z,33.60
2022-12-15T07:56:10.825Z,32.80
2022-12-15T07:58:38.706Z,31.97
2022-12-15T08:01:08.613Z,33.37
2022-12-15T08:03:36.456Z,32.87
2022-12-15T08:06:10.368Z,32.93
2022-12-15T08:08:37.518Z,32.85
2022-12-15T08:11:09.178Z,33.27
2022-12-15T08:14:02.082Z,31.77
2022-12-15T08:16:24.267Z,31.93
2022-12-15T08:18:50.979Z,30.80
2022-12-15T08:21:17.961Z,32.77
2022-12-15T08:23:44.925Z,29.73
2022-12-15T08:26:17.342Z,28.20
2022-12-15T08:28:45.122Z,28.47
2022-12-15T08:31:18.342Z,31.00
2022-12-15T08:33:46.107Z,31.30
2022-12-15T08:36:14.852Z,31.43
2022-12-15T08:38:42.837Z,30.20
2022-12-15T08:41:15.853Z,30.50
2022-12-15T08:43:48.076Z,31.55
2022-12-15T08:46:19.023Z,30.20
2022-12-15T08:48:46.279Z,30.10
2022-12-15T08:51:13.052Z,31.23
2022-12-15T08:53:39.695Z,29.37
2022-12-15T08:56:09.114Z,31.10
2022-12-15T08:58:35.834Z,30.47
2022-12-15T09:01:06.257Z,31.37
2022-12-15T09:03:34.978Z,30.57
2022-12-15T09:06:07.597Z,31.53
2022-12-15T09:08:35.511Z,30.80
2022-12-15T09:11:02.475Z,29.53
2022-12-15T09:13:30.116Z,30.27
2022-12-15T09:16:11.142Z,29.70
2022-12-15T09:18:38.824Z,28.90
2022-12-15T09:21:07.731Z,29.07
2022-12-15T09:23:36.634Z,28.10
2022-12-15T09:26:09.631Z,28.73
2022-12-15T09:28:37.880Z,29.57
2022-12-15T09:31:08.600Z,29.53
2022-12-15T09:33:36.054Z,29.77
2022-12-15T09:36:04.054Z,28.50
2022-12-15T09:38:32.955Z,29.47
2022-12-15T09:41:13.243Z,28.70
2022-12-15T09:44:12.752Z,29.20
2022-12-15T09:46:51.183Z,29.93
2022-12-15T09:49:30.070Z,27.40
2022-12-15T09:52:10.354Z,28.93
2022-12-15T09:54:38.589Z,29.93
2022-12-15T09:57:14.271Z,30.50
2022-12-15T09:59:49.789Z,30.97
2022-12-15T10:02:46.862Z,28.30
2022-12-15T10:06:05.961Z,28.57
2022-12-15T10:08:23.734Z,29.60
2022-12-15T10:11:03.880Z,28.80
2022-12-15T10:13:50.350Z,29.53
2022-12-15T10:16:54.857Z,29.47
2022-12-15T10:19:42.543Z,28.20
2022-12-15T10:22:14.089Z,29.63
2022-12-15T10:27:46.921Z,27.90
2022-12-15T10:30:16.260Z,30.43
2022-12-15T10:32:55.704Z,31.00
2022-12-15T10:35:27.642Z,30.60
2022-12-15T10:38:34.817Z,30.40
2022-12-15T10:41:03.750Z,30.57
2022-12-15T10:43:42.285Z,29.83
2022-12-15T10:46:14.144Z,30.20
2022-12-15T10:48:48.673Z,29.30
2022-12-15T10:51:28.937Z,29.40
2022-12-15T10:54:06.780Z,30.23
2022-12-15T10:56:34.522Z,30.17
2022-12-15T10:59:04.526Z,29.00
2022-12-15T11:01:34.373Z,29.63
2022-12-15T11:04:01.468Z,31.87
2022-12-15T11:06:37.701Z,28.20
2022-12-15T11:09:27.360Z,27.77
2022-12-15T11:12:13.473Z,28.73
2022-12-15T11:14:51.153Z,28.60
2022-12-15T11:17:21.054Z,28.50
2022-12-15T11:20:00.015Z,28.37
2022-12-15T11:22:34.999Z,28.93
2022-12-15T11:25:32.816Z,27.83
2022-12-15T11:28:02.863Z,27.40
2022-12-15T11:30:35.199Z,27.67
2022-12-15T11:33:03.120Z,27.50
2022-12-15T11:35:51.589Z,27.10
2022-12-15T11:38:18.242Z,27.00
2022-12-15T11:40:44.985Z,27.50
2022-12-15T11:43:18.575Z,27.73
2022-12-15T11:46:11.756Z,28.35
2022-12-15T11:49:02.428Z,26.47
2022-12-15T11:51:53.570Z,27.60
2022-12-15T11:55:33.199Z,26.57
2022-12-15T11:58:11.079Z,26.97
2022-12-15T12:00:43.524Z,24.80
2022-12-15T12:03:27.758Z,25.87
2022-12-15T12:06:07.919Z,24.55
2022-12-15T12:08:41.643Z,25.83
2022-12-15T12:11:42.939Z,25.63
2022-12-15T12:14:38.060Z,25.93
2022-12-15T12:17:33.840Z,24.70
2022-12-15T12:20:11.351Z,26.13
2022-12-15T12:22:44.527Z,25.48
2022-12-15T12:28:06.249Z,25.27
2022-12-15T12:30:43.240Z,24.73
2022-12-15T12:33:25.317Z,24.00
2022-12-15T12:36:00.199Z,23.88
2022-12-15T12:38:33.819Z,26.27
2022-12-15T12:43:51.068Z,23.58
2022-12-15T12:46:32.935Z,25.02
2022-12-15T12:49:15.179Z,25.05
2022-12-15T12:51:49.249Z,23.37
2022-12-15T12:56:58.430Z,23.63
2022-12-15T12:59:28.510Z,24.23
2022-12-15T13:01:57.073Z,24.53
2022-12-15T13:04:29.995Z,24.57
2022-12-15T13:07:02.503Z,25.43
2022-12-15T13:09:43.505Z,25.43
2022-12-15T13:12:50.961Z,23.87
2022-12-15T13:15:28.754Z,24.47
2022-12-15T13:17:56.641Z,25.52
2022-12-15T13:20:28.731Z,25.80
2022-12-15T13:22:56.989Z,24.60
2022-12-15T13:25:40.493Z,25.70
2022-12-15T13:28:18.041Z,18.15
2022-12-15T13:31:19.617Z,25.50
2022-12-15T13:33:52.415Z,24.60
2022-12-15T13:36:39.920Z,24.63
2022-12-15T13:39:12.789Z,25.47
2022-12-15T13:42:31.378Z,23.67
2022-12-15T13:44:44.228Z,26.13
2022-12-15T13:47:31.289Z,25.20
2022-12-15T13:50:20.061Z,26.67
2022-12-15T13:55:53.308Z,25.20
2022-12-15T13:58:21.846Z,26.87
2022-12-15T14:00:52.647Z,27.43
2022-12-15T14:03:19.771Z,28.03
2022-12-15T14:05:55.309Z,28.60
2022-12-15T14:08:23.696Z,28.27
2022-12-15T14:10:59.305Z,26.93
2022-12-15T14:13:33.656Z,26.50
2022-12-15T14:16:03.805Z,40.87
2022-12-15T14:18:36.175Z,28.17
2022-12-15T14:21:07.154Z,30.90
2022-12-15T14:26:31.800Z,27.90
2022-12-15T14:29:05.177Z,25.13
2022-12-15T14:31:32.017Z,26.50
2022-12-15T14:34:13.557Z,25.37
2022-12-15T14:36:42.557Z,28.67
2022-12-15T14:39:23.111Z,28.87
2022-12-15T14:41:51.463Z,28.33
2022-12-15T14:44:43.868Z,26.30
2022-12-15T14:47:30.952Z,25.90
2022-12-15T14:50:01.089Z,27.03
2022-12-15T14:52:34.664Z,24.77
2022-12-15T14:55:04.151Z,24.65
2022-12-15T14:57:47.871Z,27.70
2022-12-15T15:00:23.770Z,25.42
2022-12-15T15:03:09.039Z,28.47
2022-12-15T15:03:16.841Z,25.87
2022-12-15T15:05:51.424Z,26.95
2022-12-15T15:08:43.046Z,27.58
2022-12-15T15:11:31.464Z,27.03
2022-12-15T15:14:12.585Z,26.80
2022-12-15T15:16:39.468Z,26.03
2022-12-15T15:19:06.931Z,24.63
2022-12-15T15:21:37.304Z,26.17
2022-12-15T15:24:10.677Z,26.03
2022-12-15T15:26:38.330Z,26.75
2022-12-15T15:29:25.563Z,26.00
2022-12-15T15:31:53.404Z,26.33
2022-12-15T15:34:20.073Z,25.40
2022-12-15T15:36:47.397Z,26.07
2022-12-15T15:39:15.642Z,26.20
2022-12-15T15:41:42.678Z,24.00
2022-12-15T15:44:17.260Z,24.43
2022-12-15T15:46:49.873Z,25.47
2022-12-15T15:49:21.667Z,28.77
2022-12-15T15:51:49.007Z,24.53
2022-12-15T15:54:21.036Z,24.10
2022-12-15T15:56:47.772Z,25.67
2022-12-15T15:59:20.994Z,25.60
2022-12-15T16:01:54.612Z,24.35
2022-12-15T16:04:22.353Z,24.30
2022-12-15T16:06:50.972Z,38.13
2022-12-15T16:09:17.727Z,36.40
2022-12-15T16:11:45.977Z,27.63
2022-12-15T16:14:14.717Z,28.33
2022-12-15T16:16:41.940Z,25.93
2022-12-15T16:19:09.128Z,25.17
2022-12-15T16:21:36.489Z,23.43
2022-12-15T16:24:15.170Z,23.23
2022-12-15T16:26:47.434Z,23.97
2022-12-15T16:29:19.926Z,24.13
2022-12-15T16:31:46.985Z,23.23
2022-12-15T16:34:16.366Z,22.83
2022-12-15T16:36:43.532Z,23.63
2022-12-15T16:39:34.176Z,25.10
2022-12-15T16:42:01.372Z,24.43
2022-12-15T16:44:31.861Z,23.97
2022-12-15T16:46:58.931Z,24.47
2022-12-15T16:49:27.648Z,24.73
2022-12-15T16:51:54.568Z,25.00
2022-12-15T16:54:27.116Z,26.10
2022-12-15T16:56:54.875Z,25.70
2022-12-15T16:59:33.061Z,26.07
2022-12-15T17:02:00.683Z,26.00
2022-12-15T17:04:27.733Z,24.43
2022-12-15T17:06:54.515Z,26.63
2022-12-15T17:09:24.168Z,24.90
2022-12-15T17:11:51.840Z,25.57
2022-12-15T17:14:18.647Z,23.27
2022-12-15T17:16:45.302Z,23.13
2022-12-15T17:19:16.143Z,24.03
2022-12-15T17:21:49.119Z,23.33
2022-12-15T17:24:19.936Z,24.53
2022-12-15T17:26:47.006Z,24.90
2022-12-15T17:29:25.506Z,23.57
2022-12-15T17:31:52.258Z,24.37
2022-12-15T17:34:34.799Z,25.30
2022-12-15T17:37:04.224Z,22.17
2022-12-15T17:39:33.772Z,23.07
2022-12-15T17:42:02.012Z,23.13
2022-12-15T17:44:37.176Z,24.20
2022-12-15T17:47:05.954Z,24.13
2022-12-15T17:49:36.382Z,23.87
2022-12-15T17:52:07.231Z,24.80
2022-12-15T17:54:34.082Z,26.60
2022-12-15T17:57:00.843Z,28.43
2022-12-15T17:59:27.572Z,34.80
2022-12-15T18:01:57.099Z,38.70
2022-12-15T18:04:24.085Z,45.07
2022-12-15T18:06:52.020Z,46.53
2022-12-15T18:09:23.504Z,34.70
2022-12-15T18:11:50.207Z,36.60
2022-12-15T18:14:18.376Z,37.43
2022-12-15T18:16:46.009Z,32.33
2022-12-15T18:19:12.982Z,28.93
2022-12-15T18:21:40.426Z,24.70
2022-12-15T18:24:15.414Z,30.67
2022-12-15T18:26:42.108Z,33.40
2022-12-15T18:29:18.135Z,34.03
2022-12-15T18:31:48.270Z,34.13
2022-12-15T18:34:17.933Z,33.33
2022-12-15T18:36:44.901Z,34.87
2022-12-15T18:39:20.038Z,32.57
2022-12-15T18:41:46.981Z,27.30
2022-12-15T18:44:24.006Z,25.90
2022-12-15T18:46:50.945Z,26.60
2022-12-15T18:49:19.450Z,27.30
2022-12-15T18:51:47.789Z,26.90
2022-12-15T18:54:18.087Z,26.23
2022-12-15T18:56:45.207Z,26.57
2022-12-15T18:59:15.628Z,24.80
2022-12-15T19:01:44.153Z,23.97
2022-12-15T19:04:11.386Z,24.53
2022-12-15T19:06:40.260Z,25.17
2022-12-15T19:09:19.868Z,23.93
2022-12-15T19:12:06.548Z,24.03
2022-12-15T19:14:42.848Z,25.33
2022-12-15T19:17:46.493Z,26.37
2022-12-15T19:20:39.156Z,27.57
2022-12-15T19:23:06.837Z,27.50
2022-12-15T19:25:34.379Z,28.50
2022-12-15T19:28:01.501Z,28.67
2022-12-15T19:30:37.039Z,30.43
2022-12-15T19:33:08.293Z,30.83
2022-12-15T19:35:36.756Z,32.20
2022-12-15T19:38:04.419Z,35.07
2022-12-15T19:40:33.797Z,33.13
2022-12-15T19:43:02.194Z,32.17
2022-12-15T19:45:32.102Z,33.20
2022-12-15T19:47:59.533Z,34.23
2022-12-15T19:50:30.547Z,32.43
2022-12-15T19:53:01.982Z,31.70
2022-12-15T19:55:35.648Z,38.70
2022-12-15T19:58:27.872Z,77.47
2022-12-15T20:01:00.717Z,91.50
2022-12-15T20:03:29.310Z,90.23
2022-12-15T20:05:57.759Z,63.00
2022-12-15T20:08:27.190Z,46.80
2022-12-15T20:10:55.531Z,38.73
2022-12-15T20:13:22.867Z,31.93
2022-12-15T20:15:49.601Z,33.83
2022-12-15T20:18:16.328Z,31.63
2022-12-15T20:20:47.203Z,30.10
2022-12-15T20:23:26.348Z,32.23
2022-12-15T20:25:54.615Z,30.97
2022-12-15T20:28:29.574Z,30.00
2022-12-15T20:30:57.373Z,29.00
2022-12-15T20:33:24.546Z,28.20
2022-12-15T20:35:51.565Z,31.23
2022-12-15T20:38:27.479Z,31.53
2022-12-15T20:40:55.317Z,27.27
2022-12-15T20:43:22.999Z,26.57
2022-12-15T20:46:03.107Z,29.37
2022-12-15T20:48:30.654Z,31.97
2022-12-15T20:50:57.501Z,31.57
2022-12-15T20:53:26.283Z,31.57
2022-12-15T20:55:54.668Z,28.50
2022-12-15T20:58:21.780Z,28.53
2022-12-15T21:00:49.708Z,28.33
2022-12-15T21:03:23.171Z,26.33
2022-12-15T21:05:50.966Z,27.23
2022-12-15T21:08:27.355Z,26.97
2022-12-15T21:10:56.469Z,30.17
2022-12-15T21:13:26.611Z,28.93
2022-12-15T21:15:54.270Z,27.77
2022-12-15T21:21:33.590Z,25.73
2022-12-15T21:24:01.838Z,24.27
2022-12-15T21:26:28.748Z,23.87
2022-12-15T21:28:59.038Z,23.97
2022-12-15T21:31:26.344Z,25.57
2022-12-15T21:33:53.140Z,27.00
2022-12-15T21:36:21.869Z,25.20
2022-12-15T21:38:52.507Z,26.93
2022-12-15T21:41:22.207Z,26.37
2022-12-15T21:43:49.904Z,25.97
2022-12-15T21:46:27.502Z,25.37
2022-12-15T21:49:13.968Z,24.87
2022-12-15T21:51:43.378Z,24.17
2022-12-15T21:54:30.760Z,27.07
2022-12-15T21:56:58.656Z,25.53
2022-12-15T21:59:29.140Z,25.23
2022-12-15T22:01:56.149Z,26.80
2022-12-15T22:04:30.521Z,24.60
2022-12-15T22:06:57.238Z,24.70
2022-12-15T22:09:24.095Z,26.47
2022-12-15T22:11:55.897Z,26.03
2022-12-15T22:14:31.994Z,27.83
2022-12-15T22:17:00.093Z,26.07
2022-12-15T22:19:27.450Z,26.90
2022-12-15T22:21:54.127Z,28.93
2022-12-15T22:24:21.699Z,28.93
2022-12-15T22:26:48.657Z,26.77
2022-12-15T22:29:19.142Z,28.10
2022-12-15T22:31:46.976Z,27.60
2022-12-15T22:34:16.659Z,26.57
2022-12-15T22:36:43.569Z,27.17
2022-12-15T22:39:10.815Z,24.60
2022-12-15T22:41:49.846Z,23.13
2022-12-15T22:44:21.086Z,23.60
2022-12-15T22:46:49.830Z,25.90
2022-12-15T22:49:23.201Z,24.00
2022-12-15T22:51:50.001Z,21.87
2022-12-15T22:54:22.572Z,22.23
2022-12-15T22:56:53.988Z,22.63
2022-12-15T22:59:28.958Z,22.13
2022-12-15T23:01:55.868Z,20.33
2022-12-15T23:04:23.980Z,19.97
2022-12-15T23:06:50.955Z,20.43
2022-12-15T23:09:18.735Z,18.70
2022-12-15T23:11:45.411Z,18.50
2022-12-15T23:14:17.177Z,18.40
2022-12-15T23:16:46.345Z,18.23
2022-12-15T23:19:25.063Z,18.27
2022-12-15T23:21:52.008Z,19.57
2022-12-15T23:24:18.948Z,17.97
2022-12-15T23:26:45.714Z,18.63
2022-12-15T23:29:12.953Z,17.33
2022-12-15T23:31:39.765Z,17.87
2022-12-15T23:34:06.602Z,17.70
2022-12-15T23:36:33.251Z,17.27
2022-12-15T23:38:59.959Z,17.17
2022-12-15T23:41:29.033Z,18.63
2022-12-15T23:43:56.139Z,18.20
2022-12-15T23:46:22.805Z,18.97
2022-12-15T23:48:49.557Z,18.00
2022-12-15T23:51:20.055Z,17.30
2022-12-15T23:53:47.815Z,18.17
2022-12-15T23:56:17.429Z,21.00
2022-12-15T23:58:45.743Z,18.77
